sensor_id;sensor_type;location;lat;lon;timestamp;P1;durP1;ratioP1;P2;durP2;ratioP2
71360;SDS011;59166;48.908;1.870;2022-10-18T00:01:26;12.10;;;5.00;;
71360;SDS011;59166;48.908;1.870;2022-10-18T00:06:28;13.03;;;4.87;;
71360;SDS011;59166;48.908;1.870;2022-10-18T00:11:29;10.40;;;4.50;;
71360;SDS011;59166;48.908;1.870;2022-10-18T00:16:30;13.35;;;4.80;;
71360;SDS011;59166;48.908;1.870;2022-10-18T00:21:33;11.30;;;4.60;;
71360;SDS011;59166;48.908;1.870;2022-10-18T00:26:33;12.93;;;5.20;;
71360;SDS011;59166;48.908;1.870;2022-10-18T00:31:35;11.60;;;4.95;;
71360;SDS011;59166;48.908;1.870;2022-10-18T00:36:38;15.47;;;6.80;;
71360;SDS011;59166;48.908;1.870;2022-10-18T00:41:39;16.73;;;6.63;;
71360;SDS011;59166;48.908;1.870;2022-10-18T00:46:41;15.00;;;6.22;;
71360;SDS011;59166;48.908;1.870;2022-10-18T00:51:45;13.02;;;6.18;;
71360;SDS011;59166;48.908;1.870;2022-10-18T00:56:49;15.13;;;6.70;;
71360;SDS011;59166;48.908;1.870;2022-10-18T01:01:50;16.27;;;7.05;;
71360;SDS011;59166;48.908;1.870;2022-10-18T01:06:54;21.70;;;7.95;;
71360;SDS011;59166;48.908;1.870;2022-10-18T01:12:06;32.50;;;7.93;;
71360;SDS011;59166;48.908;1.870;2022-10-18T01:17:18;15.80;;;7.68;;
71360;SDS011;59166;48.908;1.870;2022-10-18T01:22:33;18.45;;;8.30;;
71360;SDS011;59166;48.908;1.870;2022-10-18T01:27:48;17.20;;;7.93;;
71360;SDS011;59166;48.908;1.870;2022-10-18T01:32:57;17.15;;;7.60;;
71360;SDS011;59166;48.908;1.870;2022-10-18T01:38:04;15.07;;;7.00;;
71360;SDS011;59166;48.908;1.870;2022-10-18T01:43:10;17.07;;;6.63;;
71360;SDS011;59166;48.908;1.870;2022-10-18T01:48:14;15.97;;;6.80;;
71360;SDS011;59166;48.908;1.870;2022-10-18T01:53:23;14.98;;;6.70;;
71360;SDS011;59166;48.908;1.870;2022-10-18T01:58:27;14.75;;;6.80;;
71360;SDS011;59166;48.908;1.870;2022-10-18T02:03:37;14.70;;;6.57;;
71360;SDS011;59166;48.908;1.870;2022-10-18T02:08:45;14.23;;;6.25;;
71360;SDS011;59166;48.908;1.870;2022-10-18T02:13:54;13.30;;;5.97;;
71360;SDS011;59166;48.908;1.870;2022-10-18T02:19:01;14.97;;;6.40;;
71360;SDS011;59166;48.908;1.870;2022-10-18T02:24:08;15.02;;;6.03;;
71360;SDS011;59166;48.908;1.870;2022-10-18T02:29:30;15.25;;;5.50;;
71360;SDS011;59166;48.908;1.870;2022-10-18T02:34:34;14.37;;;5.53;;
71360;SDS011;59166;48.908;1.870;2022-10-18T02:39:39;12.43;;;5.37;;
71360;SDS011;59166;48.908;1.870;2022-10-18T02:44:44;13.13;;;5.32;;
71360;SDS011;59166;48.908;1.870;2022-10-18T02:49:47;11.10;;;5.07;;
71360;SDS011;59166;48.908;1.870;2022-10-18T02:54:47;11.60;;;4.60;;
71360;SDS011;59166;48.908;1.870;2022-10-18T02:59:48;13.25;;;4.90;;
71360;SDS011;59166;48.908;1.870;2022-10-18T03:04:51;19.35;;;5.45;;
71360;SDS011;59166;48.908;1.870;2022-10-18T03:09:52;18.67;;;5.30;;
71360;SDS011;59166;48.908;1.870;2022-10-18T03:14:53;38.67;;;4.50;;
71360;SDS011;59166;48.908;1.870;2022-10-18T03:19:55;39.30;;;4.85;;
71360;SDS011;59166;48.908;1.870;2022-10-18T03:24:56;25.00;;;4.40;;
71360;SDS011;59166;48.908;1.870;2022-10-18T03:29:57;21.65;;;3.92;;
71360;SDS011;59166;48.908;1.870;2022-10-18T03:35:00;11.15;;;4.35;;
71360;SDS011;59166;48.908;1.870;2022-10-18T03:40:01;12.00;;;4.03;;
71360;SDS011;59166;48.908;1.870;2022-10-18T03:45:02;11.48;;;3.67;;
71360;SDS011;59166;48.908;1.870;2022-10-18T03:50:05;10.48;;;3.75;;
71360;SDS011;59166;48.908;1.870;2022-10-18T03:55:07;9.57;;;3.87;;
71360;SDS011;59166;48.908;1.870;2022-10-18T04:00:09;10.80;;;4.10;;
71360;SDS011;59166;48.908;1.870;2022-10-18T04:05:12;9.75;;;4.18;;
71360;SDS011;59166;48.908;1.870;2022-10-18T04:10:13;10.97;;;4.03;;
71360;SDS011;59166;48.908;1.870;2022-10-18T04:15:14;10.27;;;4.23;;
71360;SDS011;59166;48.908;1.870;2022-10-18T04:20:17;10.52;;;4.13;;
71360;SDS011;59166;48.908;1.870;2022-10-18T04:25:18;9.50;;;4.20;;
71360;SDS011;59166;48.908;1.870;2022-10-18T04:30:19;10.20;;;4.13;;
71360;SDS011;59166;48.908;1.870;2022-10-18T04:35:21;12.95;;;4.45;;
71360;SDS011;59166;48.908;1.870;2022-10-18T04:40:22;15.90;;;4.97;;
71360;SDS011;59166;48.908;1.870;2022-10-18T04:45:23;17.77;;;4.63;;
71360;SDS011;59166;48.908;1.870;2022-10-18T04:50:25;14.65;;;4.38;;
71360;SDS011;59166;48.908;1.870;2022-10-18T04:55:26;13.80;;;4.40;;
71360;SDS011;59166;48.908;1.870;2022-10-18T05:00:27;10.85;;;4.10;;
71360;SDS011;59166;48.908;1.870;2022-10-18T05:05:30;10.43;;;4.03;;
71360;SDS011;59166;48.908;1.870;2022-10-18T05:10:31;10.83;;;4.40;;
71360;SDS011;59166;48.908;1.870;2022-10-18T05:15:32;11.10;;;4.23;;
71360;SDS011;59166;48.908;1.870;2022-10-18T05:20:34;15.98;;;5.88;;
71360;SDS011;59166;48.908;1.870;2022-10-18T05:25:36;18.87;;;4.90;;
71360;SDS011;59166;48.908;1.870;2022-10-18T05:30:37;18.27;;;5.55;;
71360;SDS011;59166;48.908;1.870;2022-10-18T05:35:41;33.45;;;10.30;;
71360;SDS011;59166;48.908;1.870;2022-10-18T05:40:43;77.33;;;18.73;;
71360;SDS011;59166;48.908;1.870;2022-10-18T05:45:46;64.90;;;17.92;;
71360;SDS011;59166;48.908;1.870;2022-10-18T05:50:49;30.30;;;10.13;;
71360;SDS011;59166;48.908;1.870;2022-10-18T05:55:50;16.53;;;5.60;;
71360;SDS011;59166;48.908;1.870;2022-10-18T06:00:51;15.68;;;4.40;;
71360;SDS011;59166;48.908;1.870;2022-10-18T06:05:57;19.20;;;4.65;;
71360;SDS011;59166;48.908;1.870;2022-10-18T06:10:59;21.23;;;5.20;;
71360;SDS011;59166;48.908;1.870;2022-10-18T06:16:05;14.10;;;4.88;;
71360;SDS011;59166;48.908;1.870;2022-10-18T06:21:08;14.63;;;5.55;;
71360;SDS011;59166;48.908;1.870;2022-10-18T06:26:09;23.53;;;4.57;;
71360;SDS011;59166;48.908;1.870;2022-10-18T06:31:11;16.98;;;5.10;;
71360;SDS011;59166;48.908;1.870;2022-10-18T06:36:15;10.70;;;4.72;;
71360;SDS011;59166;48.908;1.870;2022-10-18T06:41:17;10.53;;;4.17;;
71360;SDS011;59166;48.908;1.870;2022-10-18T06:46:19;12.10;;;4.80;;
71360;SDS011;59166;48.908;1.870;2022-10-18T06:51:21;13.77;;;4.50;;
71360;SDS011;59166;48.908;1.870;2022-10-18T06:56:22;11.75;;;4.22;;
71360;SDS011;59166;48.908;1.870;2022-10-18T07:01:23;14.07;;;5.50;;
71360;SDS011;59166;48.908;1.870;2022-10-18T07:06:26;16.17;;;5.97;;
71360;SDS011;59166;48.908;1.870;2022-10-18T07:11:27;13.10;;;5.55;;
71360;SDS011;59166;48.908;1.870;2022-10-18T07:16:28;15.90;;;4.27;;
71360;SDS011;59166;48.908;1.870;2022-10-18T07:21:31;19.35;;;4.93;;
71360;SDS011;59166;48.908;1.870;2022-10-18T07:26:33;14.57;;;4.25;;
71360;SDS011;59166;48.908;1.870;2022-10-18T07:31:35;19.80;;;4.50;;
71360;SDS011;59166;48.908;1.870;2022-10-18T07:36:38;16.48;;;4.38;;
71360;SDS011;59166;48.908;1.870;2022-10-18T07:41:39;22.17;;;3.75;;
71360;SDS011;59166;48.908;1.870;2022-10-18T07:46:40;14.60;;;4.03;;
71360;SDS011;59166;48.908;1.870;2022-10-18T07:51:43;14.13;;;4.00;;
71360;SDS011;59166;48.908;1.870;2022-10-18T07:56:44;20.90;;;6.20;;
71360;SDS011;59166;48.908;1.870;2022-10-18T08:01:45;41.50;;;12.77;;
71360;SDS011;59166;48.908;1.870;2022-10-18T08:06:47;40.30;;;12.55;;
71360;SDS011;59166;48.908;1.870;2022-10-18T08:11:48;30.10;;;8.80;;
71360;SDS011;59166;48.908;1.870;2022-10-18T08:16:49;21.67;;;5.50;;
71360;SDS011;59166;48.908;1.870;2022-10-18T08:21:52;15.60;;;4.93;;
71360;SDS011;59166;48.908;1.870;2022-10-18T08:26:52;15.93;;;4.97;;
71360;SDS011;59166;48.908;1.870;2022-10-18T08:31:53;16.43;;;5.87;;
71360;SDS011;59166;48.908;1.870;2022-10-18T08:36:56;16.60;;;5.22;;
71360;SDS011;59166;48.908;1.870;2022-10-18T08:47:30;22.20;;;6.95;;
71360;SDS011;59166;48.908;1.870;2022-10-18T08:52:41;20.63;;;6.72;;
71360;SDS011;59166;48.908;1.870;2022-10-18T08:57:49;20.57;;;6.80;;
71360;SDS011;59166;48.908;1.870;2022-10-18T09:02:57;21.33;;;7.33;;
71360;SDS011;59166;48.908;1.870;2022-10-18T09:08:19;25.10;;;7.93;;
71360;SDS011;59166;48.908;1.870;2022-10-18T09:19:18;26.67;;;8.40;;
71360;SDS011;59166;48.908;1.870;2022-10-18T09:24:34;27.58;;;9.02;;
71360;SDS011;59166;48.908;1.870;2022-10-18T09:29:43;28.00;;;9.57;;
71360;SDS011;59166;48.908;1.870;2022-10-18T09:34:54;28.13;;;10.40;;
71360;SDS011;59166;48.908;1.870;2022-10-18T09:40:02;31.35;;;11.32;;
71360;SDS011;59166;48.908;1.870;2022-10-18T09:45:07;24.33;;;10.23;;
71360;SDS011;59166;48.908;1.870;2022-10-18T09:50:21;22.43;;;8.93;;
71360;SDS011;59166;48.908;1.870;2022-10-18T09:55:29;23.57;;;9.77;;
71360;SDS011;59166;48.908;1.870;2022-10-18T10:00:37;25.33;;;10.68;;
71360;SDS011;59166;48.908;1.870;2022-10-18T10:05:44;24.98;;;9.77;;
71360;SDS011;59166;48.908;1.870;2022-10-18T10:10:46;21.47;;;9.77;;
71360;SDS011;59166;48.908;1.870;2022-10-18T10:15:50;25.45;;;11.45;;
71360;SDS011;59166;48.908;1.870;2022-10-18T10:20:53;24.73;;;11.07;;
71360;SDS011;59166;48.908;1.870;2022-10-18T10:25:58;21.70;;;10.30;;
71360;SDS011;59166;48.908;1.870;2022-10-18T10:31:15;23.67;;;10.65;;
71360;SDS011;59166;48.908;1.870;2022-10-18T10:36:18;18.73;;;9.25;;
71360;SDS011;59166;48.908;1.870;2022-10-18T10:41:22;17.13;;;7.50;;
71360;SDS011;59166;48.908;1.870;2022-10-18T10:46:23;17.17;;;7.90;;
71360;SDS011;59166;48.908;1.870;2022-10-18T10:51:34;17.15;;;7.03;;
71360;SDS011;59166;48.908;1.870;2022-10-18T10:56:48;12.67;;;6.37;;
71360;SDS011;59166;48.908;1.870;2022-10-18T11:01:59;13.15;;;6.38;;
71360;SDS011;59166;48.908;1.870;2022-10-18T11:07:19;14.05;;;6.28;;
71360;SDS011;59166;48.908;1.870;2022-10-18T11:12:27;13.23;;;5.50;;
71360;SDS011;59166;48.908;1.870;2022-10-18T11:17:33;12.03;;;5.40;;
71360;SDS011;59166;48.908;1.870;2022-10-18T11:22:40;12.27;;;5.75;;
71360;SDS011;59166;48.908;1.870;2022-10-18T11:27:47;12.57;;;5.18;;
71360;SDS011;59166;48.908;1.870;2022-10-18T11:32:55;11.37;;;4.77;;
71360;SDS011;59166;48.908;1.870;2022-10-18T11:38:04;10.57;;;5.28;;
71360;SDS011;59166;48.908;1.870;2022-10-18T11:43:18;11.98;;;5.68;;
71360;SDS011;59166;48.908;1.870;2022-10-18T11:48:31;12.50;;;6.33;;
71360;SDS011;59166;48.908;1.870;2022-10-18T11:53:44;11.25;;;5.68;;
71360;SDS011;59166;48.908;1.870;2022-10-18T11:59:08;10.95;;;5.68;;
71360;SDS011;59166;48.908;1.870;2022-10-18T12:04:22;14.10;;;6.27;;
71360;SDS011;59166;48.908;1.870;2022-10-18T12:09:27;12.43;;;5.77;;
71360;SDS011;59166;48.908;1.870;2022-10-18T12:14:34;10.93;;;4.80;;
71360;SDS011;59166;48.908;1.870;2022-10-18T12:19:39;10.15;;;4.50;;
71360;SDS011;59166;48.908;1.870;2022-10-18T12:24:41;10.40;;;4.07;;
71360;SDS011;59166;48.908;1.870;2022-10-18T12:29:45;9.27;;;4.50;;
71360;SDS011;59166;48.908;1.870;2022-10-18T12:34:50;9.32;;;4.30;;
71360;SDS011;59166;48.908;1.870;2022-10-18T12:39:56;6.73;;;3.30;;
71360;SDS011;59166;48.908;1.870;2022-10-18T12:45:03;8.18;;;3.63;;
71360;SDS011;59166;48.908;1.870;2022-10-18T12:55:31;7.97;;;2.60;;
71360;SDS011;59166;48.908;1.870;2022-10-18T13:00:51;7.68;;;2.83;;
71360;SDS011;59166;48.908;1.870;2022-10-18T13:05:54;7.85;;;2.95;;
71360;SDS011;59166;48.908;1.870;2022-10-18T13:16:41;7.50;;;2.50;;
71360;SDS011;59166;48.908;1.870;2022-10-18T13:21:52;5.82;;;2.38;;
71360;SDS011;59166;48.908;1.870;2022-10-18T13:27:16;7.63;;;2.80;;
71360;SDS011;59166;48.908;1.870;2022-10-18T13:32:25;8.80;;;3.07;;
71360;SDS011;59166;48.908;1.870;2022-10-18T13:37:31;7.78;;;3.10;;
71360;SDS011;59166;48.908;1.870;2022-10-18T13:42:32;8.68;;;2.88;;
71360;SDS011;59166;48.908;1.870;2022-10-18T13:47:35;6.87;;;2.90;;
71360;SDS011;59166;48.908;1.870;2022-10-18T13:52:50;7.65;;;2.80;;
71360;SDS011;59166;48.908;1.870;2022-10-18T13:58:14;8.20;;;2.60;;
71360;SDS011;59166;48.908;1.870;2022-10-18T14:03:30;7.78;;;2.83;;
71360;SDS011;59166;48.908;1.870;2022-10-18T14:09:05;8.00;;;3.40;;
71360;SDS011;59166;48.908;1.870;2022-10-18T14:14:14;7.57;;;3.07;;
71360;SDS011;59166;48.908;1.870;2022-10-18T14:19:24;7.60;;;3.30;;
71360;SDS011;59166;48.908;1.870;2022-10-18T14:24:30;6.85;;;3.05;;
71360;SDS011;59166;48.908;1.870;2022-10-18T14:29:32;5.53;;;2.40;;
71360;SDS011;59166;48.908;1.870;2022-10-18T14:34:34;7.00;;;2.70;;
71360;SDS011;59166;48.908;1.870;2022-10-18T14:39:36;7.43;;;2.58;;
71360;SDS011;59166;48.908;1.870;2022-10-18T14:44:38;7.40;;;2.70;;
71360;SDS011;59166;48.908;1.870;2022-10-18T14:49:42;8.27;;;2.63;;
71360;SDS011;59166;48.908;1.870;2022-10-18T14:54:44;9.43;;;2.80;;
71360;SDS011;59166;48.908;1.870;2022-10-18T14:59:45;7.07;;;2.53;;
71360;SDS011;59166;48.908;1.870;2022-10-18T15:04:55;8.30;;;2.60;;
71360;SDS011;59166;48.908;1.870;2022-10-18T15:09:58;5.80;;;2.20;;
71360;SDS011;59166;48.908;1.870;2022-10-18T15:15:01;7.38;;;2.50;;
71360;SDS011;59166;48.908;1.870;2022-10-18T15:20:17;6.43;;;2.47;;
71360;SDS011;59166;48.908;1.870;2022-10-18T15:25:21;7.13;;;2.50;;
71360;SDS011;59166;48.908;1.870;2022-10-18T15:30:24;5.60;;;2.40;;
71360;SDS011;59166;48.908;1.870;2022-10-18T15:35:28;7.43;;;2.63;;
71360;SDS011;59166;48.908;1.870;2022-10-18T15:40:36;7.95;;;2.47;;
71360;SDS011;59166;48.908;1.870;2022-10-18T15:45:44;6.63;;;2.40;;
71360;SDS011;59166;48.908;1.870;2022-10-18T15:50:48;7.53;;;2.40;;
71360;SDS011;59166;48.908;1.870;2022-10-18T15:55:50;7.37;;;2.40;;
71360;SDS011;59166;48.908;1.870;2022-10-18T16:00:53;6.93;;;2.70;;
71360;SDS011;59166;48.908;1.870;2022-10-18T16:05:59;6.93;;;3.10;;
71360;SDS011;59166;48.908;1.870;2022-10-18T16:11:04;6.97;;;2.97;;
71360;SDS011;59166;48.908;1.870;2022-10-18T16:16:08;7.63;;;2.90;;
71360;SDS011;59166;48.908;1.870;2022-10-18T16:21:20;7.32;;;2.40;;
71360;SDS011;59166;48.908;1.870;2022-10-18T16:26:23;7.27;;;2.30;;
71360;SDS011;59166;48.908;1.870;2022-10-18T16:31:25;6.32;;;2.40;;
71360;SDS011;59166;48.908;1.870;2022-10-18T16:36:30;8.25;;;2.60;;
71360;SDS011;59166;48.908;1.870;2022-10-18T16:41:32;6.80;;;2.30;;
71360;SDS011;59166;48.908;1.870;2022-10-18T16:46:34;5.67;;;2.20;;
71360;SDS011;59166;48.908;1.870;2022-10-18T16:51:36;8.38;;;2.47;;
71360;SDS011;59166;48.908;1.870;2022-10-18T16:56:37;7.40;;;2.20;;
71360;SDS011;59166;48.908;1.870;2022-10-18T17:01:39;7.70;;;2.30;;
71360;SDS011;59166;48.908;1.870;2022-10-18T17:06:41;6.15;;;2.30;;
71360;SDS011;59166;48.908;1.870;2022-10-18T17:11:42;7.47;;;2.37;;
71360;SDS011;59166;48.908;1.870;2022-10-18T17:16:43;6.83;;;2.27;;
71360;SDS011;59166;48.908;1.870;2022-10-18T17:21:46;6.82;;;2.15;;
71360;SDS011;59166;48.908;1.870;2022-10-18T17:26:47;5.73;;;2.17;;
71360;SDS011;59166;48.908;1.870;2022-10-18T17:31:58;8.77;;;2.40;;
71360;SDS011;59166;48.908;1.870;2022-10-18T17:37:01;9.32;;;2.20;;
71360;SDS011;59166;48.908;1.870;2022-10-18T17:42:02;7.47;;;2.10;;
71360;SDS011;59166;48.908;1.870;2022-10-18T17:47:03;6.38;;;2.30;;
71360;SDS011;59166;48.908;1.870;2022-10-18T17:52:05;6.33;;;2.40;;
71360;SDS011;59166;48.908;1.870;2022-10-18T17:57:06;6.70;;;2.47;;
71360;SDS011;59166;48.908;1.870;2022-10-18T18:02:07;7.40;;;2.40;;
71360;SDS011;59166;48.908;1.870;2022-10-18T18:07:10;7.30;;;2.50;;
71360;SDS011;59166;48.908;1.870;2022-10-18T18:12:10;7.88;;;2.72;;
71360;SDS011;59166;48.908;1.870;2022-10-18T18:17:11;8.95;;;3.50;;
71360;SDS011;59166;48.908;1.870;2022-10-18T18:22:14;9.13;;;3.30;;
71360;SDS011;59166;48.908;1.870;2022-10-18T18:27:15;8.02;;;2.80;;
71360;SDS011;59166;48.908;1.870;2022-10-18T18:32:16;8.05;;;3.38;;
71360;SDS011;59166;48.908;1.870;2022-10-18T18:37:18;8.37;;;3.27;;
71360;SDS011;59166;48.908;1.870;2022-10-18T18:42:19;10.50;;;3.50;;
71360;SDS011;59166;48.908;1.870;2022-10-18T18:47:20;8.07;;;3.53;;
71360;SDS011;59166;48.908;1.870;2022-10-18T18:52:22;6.78;;;3.03;;
71360;SDS011;59166;48.908;1.870;2022-10-18T18:57:23;8.57;;;3.53;;
71360;SDS011;59166;48.908;1.870;2022-10-18T19:02:24;8.10;;;3.53;;
71360;SDS011;59166;48.908;1.870;2022-10-18T19:07:26;7.97;;;3.30;;
71360;SDS011;59166;48.908;1.870;2022-10-18T19:12:27;7.63;;;3.60;;
71360;SDS011;59166;48.908;1.870;2022-10-18T19:17:28;9.07;;;3.70;;
71360;SDS011;59166;48.908;1.870;2022-10-18T19:22:30;7.77;;;3.80;;
71360;SDS011;59166;48.908;1.870;2022-10-18T19:27:31;12.30;;;4.10;;
71360;SDS011;59166;48.908;1.870;2022-10-18T19:32:32;8.63;;;4.20;;
71360;SDS011;59166;48.908;1.870;2022-10-18T19:37:35;9.40;;;4.23;;
71360;SDS011;59166;48.908;1.870;2022-10-18T19:42:36;9.90;;;4.60;;
71360;SDS011;59166;48.908;1.870;2022-10-18T19:47:37;10.55;;;4.45;;
71360;SDS011;59166;48.908;1.870;2022-10-18T19:52:39;10.63;;;4.57;;
71360;SDS011;59166;48.908;1.870;2022-10-18T19:57:44;10.02;;;4.47;;
71360;SDS011;59166;48.908;1.870;2022-10-18T20:02:45;11.18;;;4.55;;
71360;SDS011;59166;48.908;1.870;2022-10-18T20:07:48;10.97;;;5.07;;
71360;SDS011;59166;48.908;1.870;2022-10-18T20:12:49;10.30;;;5.27;;
71360;SDS011;59166;48.908;1.870;2022-10-18T20:17:50;15.15;;;5.10;;
71360;SDS011;59166;48.908;1.870;2022-10-18T20:22:53;11.98;;;4.90;;
71360;SDS011;59166;48.908;1.870;2022-10-18T20:27:54;12.37;;;5.33;;
71360;SDS011;59166;48.908;1.870;2022-10-18T20:32:55;13.48;;;5.40;;
71360;SDS011;59166;48.908;1.870;2022-10-18T20:38:00;10.65;;;5.07;;
71360;SDS011;59166;48.908;1.870;2022-10-18T20:43:01;12.43;;;5.20;;
71360;SDS011;59166;48.908;1.870;2022-10-18T20:48:02;11.57;;;5.05;;
71360;SDS011;59166;48.908;1.870;2022-10-18T20:53:06;11.90;;;5.60;;
71360;SDS011;59166;48.908;1.870;2022-10-18T20:58:07;13.17;;;5.70;;
71360;SDS011;59166;48.908;1.870;2022-10-18T21:03:08;12.90;;;5.90;;
71360;SDS011;59166;48.908;1.870;2022-10-18T21:08:11;12.63;;;6.00;;
71360;SDS011;59166;48.908;1.870;2022-10-18T21:13:13;13.15;;;6.18;;
71360;SDS011;59166;48.908;1.870;2022-10-18T21:18:14;13.00;;;6.80;;
71360;SDS011;59166;48.908;1.870;2022-10-18T21:23:17;12.60;;;6.30;;
71360;SDS011;59166;48.908;1.870;2022-10-18T21:28:18;11.47;;;6.07;;
71360;SDS011;59166;48.908;1.870;2022-10-18T21:33:19;12.32;;;6.47;;
71360;SDS011;59166;48.908;1.870;2022-10-18T21:38:21;14.43;;;6.47;;
71360;SDS011;59166;48.908;1.870;2022-10-18T21:43:22;15.85;;;7.22;;
71360;SDS011;59166;48.908;1.870;2022-10-18T21:48:23;15.40;;;7.50;;
71360;SDS011;59166;48.908;1.870;2022-10-18T21:53:25;13.43;;;6.80;;
71360;SDS011;59166;48.908;1.870;2022-10-18T21:58:26;14.40;;;6.90;;
71360;SDS011;59166;48.908;1.870;2022-10-18T22:03:26;13.50;;;7.53;;
71360;SDS011;59166;48.908;1.870;2022-10-18T22:08:29;15.07;;;8.15;;
71360;SDS011;59166;48.908;1.870;2022-10-18T22:13:30;19.63;;;8.10;;
71360;SDS011;59166;48.908;1.870;2022-10-18T22:18:31;16.20;;;8.27;;
71360;SDS011;59166;48.908;1.870;2022-10-18T22:23:36;18.30;;;8.90;;
71360;SDS011;59166;48.908;1.870;2022-10-18T22:28:37;17.43;;;7.97;;
71360;SDS011;59166;48.908;1.870;2022-10-18T22:33:39;18.00;;;7.97;;
71360;SDS011;59166;48.908;1.870;2022-10-18T22:38:41;14.90;;;7.55;;
71360;SDS011;59166;48.908;1.870;2022-10-18T22:43:42;19.50;;;9.30;;
71360;SDS011;59166;48.908;1.870;2022-10-18T22:48:43;18.40;;;9.40;;
71360;SDS011;59166;48.908;1.870;2022-10-18T22:53:45;19.00;;;9.87;;
71360;SDS011;59166;48.908;1.870;2022-10-18T22:58:46;20.43;;;9.87;;
71360;SDS011;59166;48.908;1.870;2022-10-18T23:03:50;17.50;;;8.68;;
71360;SDS011;59166;48.908;1.870;2022-10-18T23:08:54;19.53;;;9.77;;
71360;SDS011;59166;48.908;1.870;2022-10-18T23:13:56;19.97;;;10.07;;
71360;SDS011;59166;48.908;1.870;2022-10-18T23:18:57;20.95;;;10.02;;
71360;SDS011;59166;48.908;1.870;2022-10-18T23:24:00;19.00;;;10.03;;
71360;SDS011;59166;48.908;1.870;2022-10-18T23:29:01;20.97;;;9.83;;
71360;SDS011;59166;48.908;1.870;2022-10-18T23:34:02;21.55;;;10.20;;
71360;SDS011;59166;48.908;1.870;2022-10-18T23:39:05;19.53;;;9.73;;
71360;SDS011;59166;48.908;1.870;2022-10-18T23:44:06;21.15;;;9.55;;
71360;SDS011;59166;48.908;1.870;2022-10-18T23:49:07;18.10;;;9.10;;
71360;SDS011;59166;48.908;1.870;2022-10-18T23:54:09;18.73;;;9.93;;
71360;SDS011;59166;48.908;1.870;2022-10-18T23:59:10;17.50;;;8.88;;
